Time;durP1;ratioP1;P1;durP2;ratioP2;P2;SDS_P1;SDS_P2;PMS_P1;PMS_P2;Temp;Humidity;BMP_temperature;BMP_pressure;BME280_temperature;BME280_humidity;BME280_pressure;Samples;Min_cycle;Max_cycle;Signal;HPM_P1;HPM_P2
2022/08/16 00:01:21;;;;;;;1.55;0.85;;;22.30;67.50;;;;;;4721031;30;20110;-81
2022/08/16 00:03:51;;;;;;;3.17;1.23;;;22.30;67.60;;;;;;4704896;30;20067;-81
2022/08/16 00:06:20;;;;;;;2.67;1.20;;;22.30;67.60;;;;;;4693010;30;20073;-81
2022/08/16 00:08:48;;;;;;;2.67;1.33;;;22.20;67.70;;;;;;4720221;30;20057;-81
2022/08/16 00:11:19;;;;;;;1.75;1.17;;;22.20;67.90;;;;;;4699153;30;20064;-81
2022/08/16 00:13:50;;;;;;;2.13;1.20;;;22.10;67.90;;;;;;4677421;30;20114;-81
2022/08/16 00:16:23;;;;;;;1.85;1.05;;;22.10;68.10;;;;;;4721218;30;20796;-81
2022/08/16 00:19:11;;;;;;;2.30;1.40;;;22.00;68.20;;;;;;4705580;30;20048;-81
2022/08/16 00:21:40;;;;;;;2.40;1.60;;;21.90;68.40;;;;;;4719899;30;20048;-81
2022/08/16 00:24:07;;;;;;;2.10;1.10;;;21.90;68.50;;;;;;4718441;30;20072;-80
2022/08/16 00:26:42;;;;;;;1.85;1.30;;;21.90;68.60;;;;;;4719842;30;20078;-81
2022/08/16 00:29:15;;;;;;;2.30;1.48;;;21.90;68.70;;;;;;4719694;30;20079;-81
2022/08/16 00:31:47;;;;;;;1.85;1.10;;;21.80;68.80;;;;;;4725315;30;20743;-81
2022/08/16 00:34:33;;;;;;;2.50;1.40;;;21.80;68.90;;;;;;4721843;30;20413;-81
2022/08/16 00:37:23;;;;;;;2.28;1.17;;;21.70;68.90;;;;;;4720350;30;20052;-80
2022/08/16 00:40:12;;;;;;;1.92;1.10;;;21.70;69.00;;;;;;4721643;30;20816;-81
2022/08/16 00:42:59;;;;;;;2.33;1.30;;;21.70;69.00;;;;;;4714057;30;20356;-81
2022/08/16 00:45:42;;;;;;;2.55;1.50;;;21.70;69.20;;;;;;4719197;30;20059;-80
2022/08/16 00:48:28;;;;;;;3.10;1.73;;;21.70;69.20;;;;;;4720222;30;20200;-81
2022/08/16 00:50:58;;;;;;;1.80;1.17;;;21.60;70.00;;;;;;4719770;30;20056;-81
2022/08/16 00:53:26;;;;;;;2.25;1.38;;;21.60;69.50;;;;;;4716871;30;20052;-80
2022/08/16 00:55:59;;;;;;;3.07;1.70;;;21.60;69.60;;;;;;4711208;30;20056;-81
2022/08/16 00:58:33;;;;;;;2.63;1.23;;;21.50;69.60;;;;;;4719144;30;20048;-81
2022/08/16 01:01:03;;;;;;;3.30;1.63;;;21.50;69.80;;;;;;4704976;30;20045;-80
2022/08/16 01:03:36;;;;;;;2.45;1.65;;;21.40;69.90;;;;;;4705443;30;20516;-80
2022/08/16 01:06:10;;;;;;;2.72;1.50;;;21.40;70.00;;;;;;4719187;30;20057;-80
2022/08/16 01:08:58;;;;;;;3.25;1.70;;;21.40;70.10;;;;;;4721805;30;20060;-81
2022/08/16 01:11:27;;;;;;;2.15;1.48;;;21.30;70.10;;;;;;4690699;30;20506;-81
2022/08/16 01:14:03;;;;;;;2.60;1.90;;;21.30;70.30;;;;;;4707227;30;20080;-81
2022/08/16 01:16:31;;;;;;;2.60;1.85;;;21.30;70.40;;;;;;4718950;30;20060;-81
2022/08/16 01:19:20;;;;;;;3.15;1.83;;;21.20;70.50;;;;;;4704283;30;20051;-81
2022/08/16 01:22:16;;;;;;;2.78;1.63;;;21.20;70.50;;;;;;4701626;30;20103;-80
2022/08/16 01:25:10;;;;;;;2.75;1.60;;;21.10;70.60;;;;;;4718920;30;20107;-81
2022/08/16 01:27:51;;;;;;;2.05;1.45;;;21.10;70.80;;;;;;4708287;30;20418;-80
2022/08/16 01:30:23;;;;;;;2.92;1.60;;;21.10;70.80;;;;;;4718911;30;20057;-81
2022/08/16 01:32:56;;;;;;;2.97;1.75;;;21.00;70.90;;;;;;4708705;30;20095;-81
2022/08/16 01:35:56;;;;;;;3.38;1.63;;;21.00;71.00;;;;;;4718755;30;20087;-81
2022/08/16 01:38:34;;;;;;;3.40;1.45;;;21.00;71.10;;;;;;4718792;30;20574;-81
2022/08/16 01:41:08;;;;;;;2.50;1.50;;;20.90;71.30;;;;;;4718905;30;20052;-81
2022/08/16 01:43:38;;;;;;;3.05;1.73;;;20.90;71.40;;;;;;4722138;30;20044;-81
2022/08/16 01:46:20;;;;;;;2.63;1.67;;;20.80;71.50;;;;;;4718709;30;20056;-81
2022/08/16 01:49:12;;;;;;;4.00;2.17;;;20.80;71.60;;;;;;4707147;30;20057;-81
2022/08/16 01:51:43;;;;;;;2.38;1.52;;;20.80;71.80;;;;;;4715956;30;20057;-81
2022/08/16 01:54:11;;;;;;;2.65;1.77;;;20.80;71.90;;;;;;4706326;30;20063;-81
2022/08/16 01:56:49;;;;;;;3.03;2.08;;;20.70;72.00;;;;;;4712641;30;20520;-81
2022/08/16 01:59:21;;;;;;;3.33;2.05;;;20.70;72.10;;;;;;4704344;30;20057;-81
2022/08/16 02:01:51;;;;;;;4.68;2.40;;;20.70;72.20;;;;;;4705186;30;20063;-81
2022/08/16 02:04:28;;;;;;;3.53;2.13;;;20.70;72.30;;;;;;4711186;30;20487;-81
2022/08/16 02:07:17;;;;;;;2.92;1.90;;;20.60;72.90;;;;;;4729457;30;20525;-81
2022/08/16 02:09:50;;;;;;;3.95;2.50;;;20.60;72.30;;;;;;4702609;30;20060;-81
2022/08/16 02:12:33;;;;;;;3.78;2.50;;;20.60;72.40;;;;;;4718796;30;20078;-81
2022/08/16 02:15:21;;;;;;;3.25;1.73;;;20.50;72.40;;;;;;4709579;30;20069;-81
2022/08/16 02:17:56;;;;;;;2.70;2.10;;;20.60;72.50;;;;;;4704540;30;20044;-81
2022/08/16 02:20:25;;;;;;;3.80;2.58;;;20.50;72.60;;;;;;4717827;30;20044;-81
2022/08/16 02:22:56;;;;;;;3.38;1.90;;;20.50;72.70;;;;;;4689576;30;20441;-81
2022/08/16 02:25:26;;;;;;;4.55;2.00;;;20.50;73.40;;;;;;4719160;30;20102;-81
2022/08/16 02:28:14;;;;;;;2.95;1.92;;;20.50;72.90;;;;;;4712927;30;20072;-81
2022/08/16 02:30:44;;;;;;;3.35;2.10;;;20.50;73.00;;;;;;4717636;30;20469;-80
2022/08/16 02:33:21;;;;;;;3.83;2.50;;;20.40;73.00;;;;;;4703876;30;20127;-80
2022/08/16 02:36:12;;;;;;;3.13;1.70;;;20.40;73.10;;;;;;4712105;30;20075;-81
2022/08/16 02:38:43;;;;;;;3.45;2.10;;;20.40;73.20;;;;;;4717776;30;20052;-81
2022/08/16 02:41:12;;;;;;;3.88;2.53;;;20.30;73.20;;;;;;4689802;30;20045;-81
2022/08/16 02:43:39;;;;;;;3.95;2.20;;;20.30;73.30;;;;;;4709454;30;20040;-81
2022/08/16 02:46:08;;;;;;;3.95;2.53;;;20.30;73.30;;;;;;4695110;30;20052;-81
2022/08/16 02:48:37;;;;;;;4.18;2.13;;;20.30;73.40;;;;;;4717634;30;20491;-81
2022/08/16 02:51:08;;;;;;;4.65;2.40;;;20.30;73.50;;;;;;4718058;30;20132;-81
2022/08/16 02:53:45;;;;;;;5.03;2.53;;;20.20;73.60;;;;;;4718335;30;20529;-81
2022/08/16 02:56:15;;;;;;;3.80;2.63;;;20.20;73.70;;;;;;4717834;30;20422;-81
2022/08/16 02:58:48;;;;;;;4.90;2.80;;;20.20;73.70;;;;;;4728547;30;20076;-81
2022/08/16 03:01:21;;;;;;;5.07;2.50;;;20.10;73.80;;;;;;4718893;30;20049;-80
2022/08/16 03:04:06;;;;;;;3.92;2.80;;;20.10;73.90;;;;;;4714133;30;20056;-80
2022/08/16 03:06:54;;;;;;;3.50;2.20;;;20.10;73.90;;;;;;4724330;30;20117;-81
2022/08/16 03:09:41;;;;;;;3.55;2.40;;;20.10;74.00;;;;;;4717697;30;20056;-81
2022/08/16 03:12:13;;;;;;;3.30;2.22;;;20.10;74.10;;;;;;4703603;30;20473;-81
2022/08/16 03:14:46;;;;;;;3.70;2.05;;;20.00;74.10;;;;;;4703779;30;20056;-81
2022/08/16 03:17:18;;;;;;;4.47;2.53;;;20.00;74.20;;;;;;4717210;30;20053;-80
2022/08/16 03:19:52;;;;;;;4.13;2.88;;;20.00;74.30;;;;;;4696221;30;20061;-80
2022/08/16 03:22:34;;;;;;;3.25;2.10;;;20.00;74.40;;;;;;4698096;30;20049;-80
2022/08/16 03:25:09;;;;;;;3.38;2.35;;;20.00;74.50;;;;;;4689705;30;20082;-81
2022/08/16 03:27:39;;;;;;;4.50;2.60;;;20.00;74.50;;;;;;4728450;30;20049;-80
2022/08/16 03:30:20;;;;;;;4.53;2.88;;;19.90;74.60;;;;;;4720835;30;20060;-80
2022/08/16 03:32:51;;;;;;;3.83;2.80;;;19.90;74.60;;;;;;4723599;30;20130;-80
2022/08/16 03:35:25;;;;;;;5.80;3.22;;;19.90;74.70;;;;;;4700609;30;20088;-80
2022/08/16 03:38:06;;;;;;;4.45;2.72;;;19.90;74.80;;;;;;4712230;30;20909;-80
2022/08/16 03:40:56;;;;;;;5.60;3.28;;;19.80;74.80;;;;;;4718980;30;20134;-79
2022/08/16 03:43:25;;;;;;;4.88;3.47;;;19.80;74.90;;;;;;4703501;30;20053;-80
2022/08/16 03:46:15;;;;;;;3.72;2.38;;;19.80;75.00;;;;;;4694437;30;20037;-81
2022/08/16 03:49:04;;;;;;;4.18;2.88;;;19.80;75.10;;;;;;4701785;30;20521;-80
2022/08/16 03:51:33;;;;;;;4.43;3.10;;;19.70;75.10;;;;;;4718906;30;20054;-80
2022/08/16 03:54:05;;;;;;;3.97;2.77;;;19.70;75.20;;;;;;4720062;30;20107;-80
2022/08/16 03:56:40;;;;;;;4.43;3.08;;;19.70;75.20;;;;;;4695093;30;21477;-80
2022/08/16 03:59:27;;;;;;;6.50;3.50;;;19.70;75.30;;;;;;4717311;30;20053;-80
2022/08/16 04:01:59;;;;;;;5.78;3.58;;;19.70;75.40;;;;;;4702858;30;20046;-80
2022/08/16 04:04:29;;;;;;;5.40;3.10;;;19.70;75.50;;;;;;4713781;30;20056;-80
2022/08/16 04:07:02;;;;;;;;;;;19.60;75.50;;;;;;4717197;30;20853;-80
2022/08/16 04:09:33;;;;;;;4.87;2.83;;;19.60;75.40;;;;;;4721934;30;19931;-80
2022/08/16 04:12:06;;;;;;;6.38;3.33;;;19.50;75.60;;;;;;4706158;30;20431;-80
2022/08/16 04:14:54;;;;;;;;;;;19.60;75.70;;;;;;4688637;30;20052;-80
2022/08/16 04:17:25;;;;;;;5.70;3.63;;;19.50;75.50;;;;;;4703520;30;20360;-80
2022/08/16 04:19:53;;;;;;;4.60;3.13;;;19.50;75.80;;;;;;4696167;30;20156;-80
2022/08/16 04:22:25;;;;;;;5.00;3.80;;;19.50;75.80;;;;;;4689474;30;20078;-81
2022/08/16 04:24:56;;;;;;;;;;;19.50;75.90;;;;;;4717355;30;20511;-80
2022/08/16 04:27:31;;;;;;;3.75;2.65;;;19.40;75.70;;;;;;4716970;30;19926;-80
2022/08/16 04:30:03;;;;;;;5.30;3.40;;;19.40;75.90;;;;;;4707785;30;20147;-80
2022/08/16 04:32:41;;;;;;;6.43;3.53;;;19.50;76.00;;;;;;4716385;30;20167;-79
2022/08/16 04:35:15;;;;;;;5.82;3.63;;;19.40;75.90;;;;;;4699650;30;20631;-80
2022/08/16 04:37:45;;;;;;;4.95;3.10;;;19.40;76.00;;;;;;4730685;30;20049;-80
2022/08/16 04:40:20;;;;;;;4.97;3.00;;;19.40;76.10;;;;;;4716834;30;20060;-80
2022/08/16 04:42:52;;;;;;;5.55;3.80;;;19.50;76.20;;;;;;4708489;30;20056;-80
2022/08/16 04:45:23;;;;;;;4.70;3.35;;;19.50;76.20;;;;;;4681431;30;20123;-80
2022/08/16 04:48:09;;;;;;;6.13;4.20;;;19.50;76.20;;;;;;4692580;30;20434;-81
2022/08/16 04:50:52;;;;;;;6.97;4.10;;;19.50;76.30;;;;;;4705765;30;20787;-79
2022/08/16 04:53:28;;;;;;;5.38;3.78;;;19.50;76.40;;;;;;4704657;30;20061;-80
2022/08/16 04:55:56;;;;;;;7.13;3.90;;;19.50;76.40;;;;;;4702104;30;20057;-80
2022/08/16 04:58:25;;;;;;;5.13;3.53;;;19.50;76.40;;;;;;4715260;30;20134;-81
2022/08/16 05:01:14;;;;;;;5.60;3.97;;;19.60;76.50;;;;;;4715185;30;20049;-80
2022/08/16 05:03:43;;;;;;;6.95;4.72;;;19.60;76.50;;;;;;4696926;30;20901;-80
2022/08/16 05:06:36;;;;;;;5.57;4.05;;;19.60;76.50;;;;;;4717269;30;20168;-80
2022/08/16 05:09:17;;;;;;;7.05;4.70;;;19.60;76.50;;;;;;4702472;30;20149;-80
2022/08/16 05:11:50;;;;;;;6.30;4.40;;;19.70;76.50;;;;;;4715968;30;20045;-80
2022/08/16 05:14:20;;;;;;;6.88;4.82;;;19.70;76.50;;;;;;4701484;30;20060;-80
2022/08/16 05:17:07;;;;;;;6.25;4.47;;;19.80;76.60;;;;;;4716650;30;20052;-80
2022/08/16 05:19:39;;;;;;;6.88;4.53;;;19.80;76.50;;;;;;4696451;30;20063;-81
2022/08/16 05:22:15;;;;;;;6.90;4.15;;;19.90;76.50;;;;;;4716116;30;20098;-80
2022/08/16 05:24:49;;;;;;;5.95;4.20;;;19.90;76.40;;;;;;4719498;30;20064;-80
2022/08/16 05:27:22;;;;;;;5.82;4.30;;;20.00;76.40;;;;;;4688375;30;20060;-81
2022/08/16 05:29:49;;;;;;;5.32;3.90;;;20.00;76.30;;;;;;4705223;30;20059;-80
2022/08/16 05:32:31;;;;;;;6.53;4.30;;;20.10;76.30;;;;;;4703165;30;20119;-80
2022/08/16 05:35:06;;;;;;;6.50;4.45;;;20.10;76.10;;;;;;4701775;30;20503;-79
2022/08/16 05:37:41;;;;;;;5.38;4.13;;;20.20;76.10;;;;;;4711281;30;20057;-80
2022/08/16 05:40:13;;;;;;;6.45;4.90;;;20.30;76.00;;;;;;4705731;30;20061;-80
2022/08/16 05:42:42;;;;;;;7.22;4.38;;;20.30;75.90;;;;;;4701122;30;20049;-81
2022/08/16 05:45:16;;;;;;;6.35;4.20;;;20.40;75.80;;;;;;4714951;30;20057;-81
2022/08/16 05:47:53;;;;;;;6.15;4.35;;;20.50;75.70;;;;;;4695287;30;20049;-80
2022/08/16 05:50:43;;;;;;;6.53;4.07;;;20.60;75.50;;;;;;4703594;30;20059;-81
2022/08/16 05:53:19;;;;;;;7.13;5.22;;;20.70;75.30;;;;;;4705759;30;20068;-81
2022/08/16 05:56:11;;;;;;;6.38;4.43;;;20.80;75.20;;;;;;4691987;30;20061;-81
2022/08/16 05:58:50;;;;;;;8.43;4.93;;;20.80;75.00;;;;;;4715064;30;20479;-77
2022/08/16 06:01:18;;;;;;;7.78;5.50;;;21.00;74.90;;;;;;4713937;30;20080;-81
2022/08/16 06:03:50;;;;;;;;;;;21.00;74.80;;;;;;4689896;30;20130;-81
2022/08/16 06:06:27;;;;;;;5.95;4.43;;;21.00;74.70;;;;;;4714903;30;19927;-80
2022/08/16 06:08:56;;;;;;;7.65;4.80;;;21.10;74.60;;;;;;4688975;30;20139;-80
2022/08/16 06:11:24;;;;;;;6.40;4.85;;;21.20;74.50;;;;;;4686573;30;20049;-81
2022/08/16 06:13:56;;;;;;;7.68;5.28;;;21.20;74.30;;;;;;4696686;30;20052;-80
2022/08/16 06:16:38;;;;;;;6.88;5.28;;;21.30;74.30;;;;;;4695012;30;20211;-79
2022/08/16 06:19:05;;;;;;;7.22;5.13;;;21.40;74.20;;;;;;4708141;30;20518;-80
2022/08/16 06:21:37;;;;;;;8.23;5.30;;;21.50;74.00;;;;;;4720444;30;20128;-80
2022/08/16 06:24:05;;;;;;;7.05;4.88;;;21.60;73.90;;;;;;4720893;30;20053;-78
2022/08/16 06:26:53;;;;;;;7.22;4.68;;;21.60;73.70;;;;;;4702596;30;20076;-79
2022/08/16 06:29:29;;;;;;;7.57;4.60;;;21.80;73.60;;;;;;4705325;30;20065;-82
2022/08/16 06:31:57;;;;;;;7.68;5.72;;;21.80;73.40;;;;;;4698999;30;20114;-80
2022/08/16 06:34:26;;;;;;;6.63;4.80;;;21.90;73.30;;;;;;4712117;30;20060;-80
2022/08/16 06:37:20;;;;;;;10.48;6.85;;;22.00;73.10;;;;;;4709092;30;20079;-80
2022/08/16 06:39:48;;;;;;;9.55;6.05;;;22.10;72.90;;;;;;4701704;30;20166;-81
2022/08/16 06:42:42;;;;;;;7.15;5.15;;;22.10;72.70;;;;;;4711406;30;20072;-81
2022/08/16 06:45:37;;;;;;;11.00;8.77;;;22.30;72.60;;;;;;4696723;30;20048;-77
2022/08/16 06:48:17;;;;;;;7.72;6.20;;;22.30;72.20;;;;;;4706456;30;20064;-78
2022/08/16 06:50:58;;;;;;;9.98;8.20;;;22.30;72.10;;;;;;4717644;30;20824;-81
2022/08/16 06:53:25;;;;;;;9.25;6.40;;;22.30;71.90;;;;;;4703901;30;20057;-81
2022/08/16 06:56:04;;;;;;;8.75;5.82;;;22.40;71.80;;;;;;4702394;30;20057;-79
2022/08/16 06:58:44;;;;;;;8.93;6.50;;;22.50;71.70;;;;;;4720878;30;20066;-81
2022/08/16 07:01:19;;;;;;;8.18;6.13;;;22.60;71.50;;;;;;4709211;30;20379;-80
2022/08/16 07:04:07;;;;;;;6.15;5.07;;;22.70;71.40;;;;;;4720922;30;20143;-81
2022/08/16 07:06:43;;;;;;;10.50;7.32;;;22.80;71.10;;;;;;4693214;30;20056;-80
2022/08/16 07:09:15;;;;;;;13.75;10.02;;;22.80;70.80;;;;;;4721162;30;20053;-81
2022/08/16 07:11:46;;;;;;;9.80;8.50;;;22.80;70.40;;;;;;4708738;30;20063;-80
2022/08/16 07:14:29;;;;;;;9.73;8.25;;;22.80;70.40;;;;;;4717535;30;20139;-81
2022/08/16 07:16:59;;;;;;;7.93;6.80;;;22.80;70.40;;;;;;4695625;30;20063;-81
2022/08/16 07:19:43;;;;;;;11.43;7.57;;;22.90;70.30;;;;;;4723017;30;20752;-79
2022/08/16 07:22:41;;;;;;;9.27;7.07;;;23.00;70.20;;;;;;4699493;30;20092;-80
2022/08/16 07:25:26;;;;;;;8.65;7.68;;;23.00;70.00;;;;;;4708523;30;20048;-80
2022/08/16 07:27:53;;;;;;;8.00;6.57;;;23.10;69.70;;;;;;4706369;30;20048;-79
2022/08/16 07:30:28;;;;;;;8.25;6.28;;;23.20;69.60;;;;;;4706696;30;20511;-81
2022/08/16 07:33:30;;;;;;;6.85;5.63;;;23.30;69.50;;;;;;4726117;30;20063;-81
2022/08/16 07:36:18;;;;;;;6.20;4.80;;;23.40;69.30;;;;;;4726495;30;20049;-80
2022/08/16 07:38:51;;;;;;;6.72;5.07;;;23.60;69.00;;;;;;4723025;30;20464;-79
2022/08/16 07:41:19;;;;;;;6.82;5.13;;;23.70;68.80;;;;;;4720850;30;20103;-78
2022/08/16 07:43:56;;;;;;;5.72;4.78;;;23.70;68.50;;;;;;4700627;30;20138;-80
2022/08/16 07:46:25;;;;;;;5.68;5.03;;;23.80;68.20;;;;;;4708271;30;20071;-81
2022/08/16 07:49:12;;;;;;;7.10;5.75;;;23.90;67.90;;;;;;4707302;30;20118;-81
2022/08/16 07:51:40;;;;;;;6.75;4.55;;;23.90;67.50;;;;;;4705310;30;20057;-80
2022/08/16 07:54:09;;;;;;;7.20;4.78;;;24.00;67.40;;;;;;4722514;30;20049;-80
2022/08/16 07:56:54;;;;;;;7.07;6.10;;;24.10;67.20;;;;;;4736075;30;20059;-80
2022/08/16 07:59:24;;;;;;;8.50;6.43;;;24.20;66.70;;;;;;4709311;30;20114;-81
2022/08/16 08:02:12;;;;;;;7.25;6.00;;;24.30;66.40;;;;;;4698936;30;20609;-81
2022/08/16 08:04:49;;;;;;;7.57;5.40;;;24.30;66.10;;;;;;4715091;30;20157;-81
2022/08/16 08:07:17;;;;;;;8.25;7.38;;;24.30;65.80;;;;;;4718416;30;20094;-81
2022/08/16 08:09:51;;;;;;;8.38;6.75;;;24.40;65.90;;;;;;4716816;30;20440;-80
2022/08/16 08:12:19;;;;;;;8.47;6.50;;;24.40;65.10;;;;;;4704027;30;20052;-80
2022/08/16 08:15:06;;;;;;;6.50;5.70;;;24.50;64.80;;;;;;4717896;30;20084;-81
2022/08/16 08:17:38;;;;;;;8.65;5.72;;;24.60;64.80;;;;;;4718925;30;20044;-81
2022/08/16 08:20:15;;;;;;;8.18;6.80;;;24.60;64.40;;;;;;4719789;30;20052;-81
2022/08/16 08:22:57;;;;;;;7.25;6.20;;;24.70;63.90;;;;;;4716715;30;20070;-80
2022/08/16 08:25:34;;;;;;;6.28;5.50;;;24.70;63.90;;;;;;4705696;30;20517;-80
2022/08/16 08:28:22;;;;;;;5.55;5.05;;;24.90;63.70;;;;;;4705354;30;20422;-78
2022/08/16 08:30:57;;;;;;;6.13;4.50;;;25.00;63.00;;;;;;4706795;30;20118;-80
2022/08/16 08:33:36;;;;;;;6.10;4.43;;;25.10;62.90;;;;;;4718365;30;20118;-77
2022/08/16 08:36:23;;;;;;;5.95;4.15;;;25.20;62.50;;;;;;4716182;30;20049;-83
2022/08/16 08:39:41;;;;;;;4.68;3.53;;;25.20;61.90;;;;;;4692307;30;20079;-85
2022/08/16 08:43:04;;;;;;;6.03;4.20;;;25.40;61.60;;;;;;4723617;30;20453;-86
2022/08/16 08:46:31;;;;;;;5.35;4.25;;;25.50;61.20;;;;;;4701997;30;20147;-86
2022/08/16 08:50:49;;;;;;;4.60;3.92;;;25.60;61.00;;;;;;4677681;30;20099;-86
2022/08/16 08:58:02;;;;;;;4.80;2.77;;;25.80;60.80;;;;;;4661512;30;20058;-86
2022/08/16 09:00:57;;;;;;;3.97;3.25;;;26.00;60.60;;;;;;4645793;30;20082;-86
2022/08/16 09:08:37;;;;;;;3.75;3.33;;;26.20;60.20;;;;;;4622134;30;20138;-85
2022/08/16 09:12:12;;;;;;;6.25;4.13;;;26.30;60.20;;;;;;4604865;30;20197;-85
2022/08/16 09:15:20;;;;;;;;;;;26.50;59.60;;;;;;4629150;30;20155;-85
2022/08/16 09:18:19;;;;;;;6.20;3.63;;;26.50;59.50;;;;;;4661377;30;20001;-86
2022/08/16 09:22:05;;;;;;;5.65;3.92;;;26.60;59.40;;;;;;4679730;30;20805;-86
2022/08/16 09:24:57;;;;;;;3.63;3.17;;;26.80;59.30;;;;;;4675911;30;20081;-84
2022/08/16 09:27:42;;;;;;;5.45;4.30;;;26.90;59.30;;;;;;4678238;30;20052;-87
2022/08/16 09:30:42;;;;;;;4.55;4.03;;;27.00;58.70;;;;;;4693655;30;20080;-85
2022/08/16 09:33:17;;;;;;;4.80;3.70;;;27.20;58.60;;;;;;4725071;30;20511;-82
2022/08/16 09:35:52;;;;;;;3.20;2.90;;;27.20;58.30;;;;;;4721033;30;20041;-82
2022/08/16 09:38:23;;;;;;;3.60;3.05;;;27.30;58.20;;;;;;4701803;30;20526;-87
2022/08/16 09:40:59;;;;;;;3.85;3.00;;;27.40;57.90;;;;;;4727410;30;21072;-87
2022/08/16 09:43:27;;;;;;;4.63;3.28;;;27.50;57.70;;;;;;4716657;30;20126;-85
2022/08/16 09:46:14;;;;;;;5.05;3.92;;;27.60;57.70;;;;;;4705899;30;20045;-90
2022/08/16 09:49:02;;;;;;;5.22;4.13;;;27.60;57.10;;;;;;4704710;30;20072;-85
2022/08/16 09:51:47;;;;;;;5.47;4.10;;;27.60;56.80;;;;;;4705074;30;20060;-87
2022/08/16 09:54:22;;;;;;;5.55;4.57;;;27.60;56.80;;;;;;4717416;30;20053;-90
2022/08/16 09:57:09;;;;;;;4.32;3.65;;;27.60;56.50;;;;;;4719660;30;20067;-89
2022/08/16 10:00:33;;;;;;;;;;;;;;;;;;;;;
2022/08/16 10:03:29;;;;;;;4.20;3.75;;;27.50;56.50;;;;;;4716853;30;20057;-88
2022/08/16 10:06:23;;;;;;;6.03;3.88;;;27.60;56.30;;;;;;4720672;30;20060;-87
2022/08/16 10:09:08;;;;;;;5.05;4.55;;;27.60;55.70;;;;;;4713039;30;20097;-87
2022/08/16 10:14:44;;;;;;;4.70;4.22;;;27.70;54.80;;;;;;4722420;30;20500;-87
2022/08/16 10:17:12;;;;;;;6.25;5.03;;;27.80;54.60;;;;;;4686657;30;20080;-87
2022/08/16 10:19:40;;;;;;;5.53;4.82;;;27.90;54.20;;;;;;4715299;30;20404;-86
2022/08/16 10:22:09;;;;;;;5.05;3.92;;;28.00;53.90;;;;;;4701024;30;20100;-87
2022/08/16 10:24:41;;;;;;;6.60;4.90;;;28.20;53.90;;;;;;4687567;30;20049;-86
2022/08/16 10:27:26;;;;;;;8.15;4.68;;;28.30;53.50;;;;;;4702588;30;20116;-85
2022/08/16 10:30:15;;;;;;;4.15;3.72;;;28.40;53.30;;;;;;4702825;30;20139;-86
2022/08/16 10:32:51;;;;;;;4.13;3.20;;;28.70;53.10;;;;;;4714589;30;20069;-85
2022/08/16 10:35:18;;;;;;;4.35;3.38;;;29.00;52.80;;;;;;4714676;30;20396;-86
2022/08/16 10:37:45;;;;;;;4.63;2.72;;;29.40;52.20;;;;;;4686307;30;20052;-86
2022/08/16 10:40:15;;;;;;;3.30;3.00;;;29.60;51.90;;;;;;4724905;30;20106;-89
2022/08/16 10:43:01;;;;;;;4.20;3.23;;;29.80;51.50;;;;;;4690272;30;20115;-90
2022/08/16 10:45:29;;;;;;;;;;;29.90;51.40;;;;;;4703178;30;20308;-91
2022/08/16 10:48:05;;;;;;;3.10;2.70;;;30.10;51.30;;;;;;4716653;30;19930;-92
2022/08/16 10:50:56;;;;;;;3.10;2.38;;;30.30;51.10;;;;;;4717109;30;20527;-92
2022/08/16 10:54:13;;;;;;;;;;;30.50;50.80;;;;;;4702433;30;20563;-83
2022/08/16 10:57:05;;;;;;;3.70;2.53;;;30.50;50.60;;;;;;4716253;30;20014;-89
2022/08/16 10:59:38;;;;;;;3.25;2.65;;;30.80;50.40;;;;;;4720712;30;20439;-84
2022/08/16 11:02:30;;;;;;;4.15;3.60;;;30.90;50.60;;;;;;4697751;30;20061;-94
2022/08/16 11:05:20;;;;;;;4.10;3.58;;;30.90;49.70;;;;;;4717229;30;20136;-88
2022/08/16 11:08:07;;;;;;;3.15;2.85;;;30.90;49.60;;;;;;4724771;30;20061;-94
2022/08/16 11:10:41;;;;;;;3.75;3.28;;;31.10;49.60;;;;;;4716945;30;20060;-89
2022/08/16 11:13:28;;;;;;;4.43;2.92;;;31.00;49.20;;;;;;4723458;30;20044;-86
2022/08/16 11:16:15;;;;;;;4.10;3.28;;;30.80;49.30;;;;;;4703762;30;20049;-91
2022/08/16 11:19:03;;;;;;;4.72;4.10;;;30.40;49.40;;;;;;4703370;30;20080;-86
2022/08/16 11:22:00;;;;;;;6.30;4.30;;;30.00;49.20;;;;;;4689124;30;20056;-88
2022/08/16 11:24:50;;;;;;;5.50;3.85;;;29.70;49.40;;;;;;4709009;30;20135;-90
2022/08/16 11:27:37;;;;;;;4.85;3.92;;;29.60;49.70;;;;;;4694237;30;20073;-82
2022/08/16 11:30:07;;;;;;;4.63;3.53;;;29.70;49.60;;;;;;4714742;30;20117;-85
2022/08/16 11:32:38;;;;;;;3.53;3.08;;;30.10;49.20;;;;;;4703378;30;20156;-83
2022/08/16 11:35:13;;;;;;;4.78;3.55;;;30.20;48.50;;;;;;4703467;30;20049;-88
2022/08/16 11:37:49;;;;;;;4.60;3.78;;;30.20;48.20;;;;;;4703497;30;20103;-84
2022/08/16 11:41:16;;;;;;;;;;;;;;;;;;;;;
2022/08/16 11:44:13;;;;;;;5.15;3.55;;;31.00;47.30;;;;;;4644600;30;20061;-82
2022/08/16 11:47:00;;;;;;;4.18;3.60;;;31.40;46.70;;;;;;4713595;30;20075;-85
2022/08/16 11:49:27;;;;;;;4.55;3.70;;;31.80;46.30;;;;;;4705980;30;20095;-87
2022/08/16 11:52:04;;;;;;;4.57;3.60;;;31.90;46.00;;;;;;4724100;30;20060;-84
2022/08/16 11:54:36;;;;;;;5.53;4.35;;;32.00;45.80;;;;;;4729197;30;20052;-86
2022/08/16 11:57:05;;;;;;;5.97;3.70;;;32.00;45.50;;;;;;4722968;30;20059;-91
2022/08/16 11:59:38;;;;;;;3.80;3.37;;;32.10;45.80;;;;;;4694519;30;20051;-87
2022/08/16 12:02:09;;;;;;;4.22;3.80;;;32.20;45.60;;;;;;4721949;30;20052;-85
2022/08/16 12:04:56;;;;;;;4.78;3.83;;;32.40;45.60;;;;;;4710407;30;20051;-84
2022/08/16 12:07:23;;;;;;;4.32;3.22;;;32.60;45.60;;;;;;4720437;30;20055;-83
2022/08/16 12:09:52;;;;;;;5.05;3.45;;;32.80;45.60;;;;;;4719763;30;20155;-83
2022/08/16 12:12:21;;;;;;;3.90;3.10;;;33.00;45.40;;;;;;4719970;30;20087;-84
2022/08/16 12:14:50;;;;;;;5.65;4.40;;;32.50;45.70;;;;;;4719955;30;20130;-84
2022/08/16 12:17:30;;;;;;;4.25;3.13;;;31.80;46.10;;;;;;4721485;30;20497;-85
2022/08/16 12:20:05;;;;;;;4.30;2.88;;;31.40;47.00;;;;;;4716952;30;20426;-85
2022/08/16 12:22:33;;;;;;;3.25;2.35;;;31.30;47.40;;;;;;4726355;30;20127;-83
2022/08/16 12:25:06;;;;;;;3.72;2.70;;;31.30;47.60;;;;;;4717035;30;20057;-84
2022/08/16 12:27:35;;;;;;;3.05;2.42;;;31.10;47.60;;;;;;4721923;30;20077;-87
2022/08/16 12:30:06;;;;;;;3.20;2.28;;;30.80;47.90;;;;;;4726611;30;20109;-88
2022/08/16 12:32:47;;;;;;;3.78;2.40;;;30.60;48.20;;;;;;4707351;30;20049;-84
2022/08/16 12:35:25;;;;;;;2.78;2.08;;;30.30;48.50;;;;;;4718043;30;20139;-83
2022/08/16 12:37:57;;;;;;;3.35;2.38;;;30.10;48.70;;;;;;4719739;30;20048;-83
2022/08/16 12:40:30;;;;;;;3.75;2.30;;;30.00;48.90;;;;;;4719584;30;20052;-84
2022/08/16 12:43:01;;;;;;;2.72;2.03;;;30.00;48.90;;;;;;4719819;30;20056;-85
2022/08/16 12:45:33;;;;;;;2.60;1.92;;;29.90;49.00;;;;;;4719941;30;20509;-82
2022/08/16 12:51:05;;;;;;;3.92;2.28;;;29.70;49.20;;;;;;4731658;30;20060;-86
2022/08/16 12:53:47;;;;;;;4.82;3.40;;;29.60;49.20;;;;;;4719204;30;20059;-85
2022/08/16 12:56:22;;;;;;;5.10;3.28;;;29.40;49.20;;;;;;4721501;30;20414;-84
2022/08/16 12:58:52;;;;;;;5.00;3.47;;;29.30;49.30;;;;;;4723492;30;20056;-85
2022/08/16 13:01:30;;;;;;;4.63;3.78;;;29.20;49.40;;;;;;4705368;30;20049;-88
2022/08/16 13:03:59;;;;;;;5.43;3.42;;;29.40;49.50;;;;;;4719798;30;20053;-84
2022/08/16 13:06:49;;;;;;;5.05;4.10;;;29.50;49.30;;;;;;4718779;30;20135;-84
2022/08/16 13:09:22;;;;;;;4.85;3.30;;;29.80;49.10;;;;;;4723392;30;20052;-85
2022/08/16 13:12:01;;;;;;;4.95;3.60;;;30.00;48.90;;;;;;4718918;30;20052;-83
2022/08/16 13:14:39;;;;;;;4.68;4.18;;;30.40;48.80;;;;;;4705446;30;20048;-84
2022/08/16 13:17:31;;;;;;;5.95;4.40;;;30.50;48.50;;;;;;4718930;30;20537;-83
2022/08/16 13:20:00;;;;;;;4.40;4.00;;;30.50;48.40;;;;;;4726948;30;20053;-81
2022/08/16 13:22:41;;;;;;;3.53;3.20;;;30.60;48.60;;;;;;4719207;30;20044;-85
2022/08/16 13:25:10;;;;;;;4.43;3.60;;;30.60;48.60;;;;;;4721578;30;20053;-91
2022/08/16 13:27:45;;;;;;;4.88;4.28;;;30.60;48.50;;;;;;4733521;30;20059;-86
2022/08/16 13:30:33;;;;;;;4.10;3.65;;;30.60;48.50;;;;;;4729359;30;20056;-93
2022/08/16 13:33:11;;;;;;;5.75;4.40;;;30.70;48.60;;;;;;4718174;30;20110;-85
2022/08/16 13:35:52;;;;;;;5.07;4.28;;;30.60;48.10;;;;;;4732152;30;20059;-88
2022/08/16 13:38:27;;;;;;;4.90;4.17;;;30.50;48.10;;;;;;4709035;30;20060;-88
2022/08/16 13:41:05;;;;;;;4.80;4.30;;;30.50;48.20;;;;;;4687917;30;20049;-84
2022/08/16 13:43:40;;;;;;;5.82;4.80;;;30.40;48.10;;;;;;4729676;30;20144;-88
2022/08/16 13:46:08;;;;;;;4.95;4.43;;;30.40;47.90;;;;;;4739007;30;20402;-89
2022/08/16 13:48:36;;;;;;;4.75;4.25;;;30.40;47.90;;;;;;4719732;30;20527;-92
2022/08/16 13:51:16;;;;;;;3.88;3.53;;;30.40;47.90;;;;;;4719638;30;20086;-86
2022/08/16 13:53:50;;;;;;;4.40;4.00;;;30.40;47.80;;;;;;4719134;30;20506;-85
2022/08/16 13:56:26;;;;;;;4.10;3.60;;;30.50;47.60;;;;;;4718409;30;20052;-88
2022/08/16 13:59:12;;;;;;;3.72;3.30;;;30.50;47.80;;;;;;4706310;30;20109;-89
2022/08/16 14:01:58;;;;;;;4.57;3.22;;;30.50;47.70;;;;;;4714345;30;20052;-87
2022/08/16 14:04:34;;;;;;;3.03;2.72;;;30.40;47.60;;;;;;4711022;30;20465;-90
2022/08/16 14:07:06;;;;;;;4.13;3.15;;;30.40;47.60;;;;;;4705105;30;20048;-89